createdAt,value
2022-07-29T00:01:50.703Z,101808.13
2022-07-29T00:04:17.916Z,101816.88
2022-07-29T00:06:45.022Z,101813.75
2022-07-29T00:09:11.862Z,101812.34
2022-07-29T00:11:38.601Z,101814.72
2022-07-29T00:14:05.806Z,101815.41
2022-07-29T00:16:32.727Z,101807.44
2022-07-29T00:19:02.089Z,101812.56
2022-07-29T00:21:29.271Z,101815.59
2022-07-29T00:23:56.177Z,101818.66
2022-07-29T00:26:22.874Z,101818.06
2022-07-29T00:28:49.728Z,101814.78
2022-07-29T00:31:16.682Z,101816.28
2022-07-29T00:33:43.430Z,101817.63
2022-07-29T00:36:10.235Z,101814.72
2022-07-29T00:38:37.170Z,101817.72
2022-07-29T00:41:03.919Z,101812.22
2022-07-29T00:43:31.515Z,101817.72
2022-07-29T00:45:58.342Z,101811.19
2022-07-29T00:48:24.997Z,101813.75
2022-07-29T00:50:52.051Z,101810.16
2022-07-29T00:53:20.239Z,101807.75
2022-07-29T00:55:46.980Z,101801.44
2022-07-29T00:58:14.977Z,101801.63
2022-07-29T01:00:43.129Z,101801.81
2022-07-29T01:03:12.408Z,101798.03
2022-07-29T01:05:51.102Z,101797.16
2022-07-29T01:08:19.804Z,101799.06
2022-07-29T01:10:47.819Z,101796.13
2022-07-29T01:13:16.773Z,101787.69
2022-07-29T01:15:52.500Z,101785.13
2022-07-29T01:18:29.665Z,101791.28
2022-07-29T01:21:31.381Z,101794.03
2022-07-29T01:24:26.038Z,101793.56
2022-07-29T01:27:05.099Z,101792.53
2022-07-29T01:29:48.240Z,101787.69
2022-07-29T01:32:28.962Z,101794.03
2022-07-29T01:35:08.165Z,101795.75
2022-07-29T01:37:50.148Z,101794.72
2022-07-29T01:40:58.375Z,101799.16
2022-07-29T01:43:32.630Z,101795.34
2022-07-29T01:46:04.862Z,101797.06
2022-07-29T01:49:01.411Z,101799.63
2022-07-29T01:51:42.449Z,101790.53
2022-07-29T01:54:15.940Z,101788.81
2022-07-29T01:56:46.333Z,101792.59
2022-07-29T01:59:13.295Z,101791.75
2022-07-29T02:01:44.165Z,101785.22
2022-07-29T02:04:29.112Z,101793.66
2022-07-29T02:07:02.904Z,101793.00
2022-07-29T02:09:31.312Z,101797.44
2022-07-29T02:12:00.397Z,101788.38
2022-07-29T02:14:29.847Z,101805.69
2022-07-29T02:16:59.353Z,101801.03
2022-07-29T02:19:28.287Z,101793.47
2022-07-29T02:21:57.824Z,101790.34
2022-07-29T02:24:26.336Z,101788.44
2022-07-29T02:26:56.078Z,101796.50
2022-07-29T02:29:24.929Z,101792.72
2022-07-29T02:31:53.772Z,101795.84
2022-07-29T02:34:21.944Z,101792.25
2022-07-29T02:36:50.800Z,101792.06
2022-07-29T02:39:19.491Z,101794.63
2022-07-29T02:42:01.361Z,101789.97
2022-07-29T02:44:34.248Z,101799.72
2022-07-29T02:47:22.072Z,101794.22
2022-07-29T02:50:00.789Z,101790.63
2022-07-29T02:52:33.640Z,101785.50
2022-07-29T02:55:19.550Z,101787.41
2022-07-29T02:57:56.130Z,101788.94
2022-07-29T03:00:28.138Z,101784.28
2022-07-29T03:02:58.960Z,101785.97
2022-07-29T03:05:26.945Z,101781.53
2022-07-29T03:08:00.003Z,101783.63
2022-07-29T03:10:27.905Z,101784.47
2022-07-29T03:12:56.852Z,101787.03
2022-07-29T03:15:24.942Z,101790.44
2022-07-29T03:17:53.663Z,101801.06
2022-07-29T03:20:20.828Z,101800.22
2022-07-29T03:22:50.583Z,101791.97
2022-07-29T03:25:19.694Z,101795.56
2022-07-29T03:27:47.776Z,101800.03
2022-07-29T03:30:21.609Z,101806.34
2022-07-29T03:32:49.535Z,101805.31
2022-07-29T03:35:20.423Z,101805.31
2022-07-29T03:37:47.504Z,101807.22
2022-07-29T03:40:20.840Z,101816.50
2022-07-29T03:42:49.534Z,101810.53
2022-07-29T03:45:19.841Z,101806.25
2022-07-29T03:48:00.562Z,101809.19
2022-07-29T03:50:29.970Z,101806.00
2022-07-29T03:52:56.921Z,101811.50
2022-07-29T03:55:24.665Z,101807.03
2022-07-29T03:57:52.228Z,101812.53
2022-07-29T04:00:20.591Z,101818.88
2022-07-29T04:02:49.974Z,101813.75
2022-07-29T04:05:17.341Z,101817.72
2022-07-29T04:07:49.001Z,101823.78
2022-07-29T04:10:17.023Z,101827.13
2022-07-29T04:12:44.295Z,101823.03
2022-07-29T04:15:11.702Z,101817.88
2022-07-29T04:17:39.039Z,101814.78
2022-07-29T04:20:06.435Z,101818.75
2022-07-29T04:22:33.280Z,101819.59
2022-07-29T04:25:03.901Z,101824.91
2022-07-29T04:27:31.362Z,101825.78
2022-07-29T04:29:58.073Z,101825.09
2022-07-29T04:32:25.817Z,101819.78
2022-07-29T04:34:52.767Z,101824.25
2022-07-29T04:37:19.670Z,101832.69
2022-07-29T04:39:46.534Z,101826.69
2022-07-29T04:42:13.410Z,101826.69
2022-07-29T04:44:42.839Z,101827.53
2022-07-29T04:47:10.502Z,101824.97
2022-07-29T04:49:40.655Z,101829.13
2022-07-29T04:52:07.817Z,101818.34
2022-07-29T04:54:34.693Z,101814.06
2022-07-29T04:57:01.541Z,101815.31
2022-07-29T04:59:28.855Z,101817.00
2022-07-29T05:01:55.779Z,101811.16
2022-07-29T05:04:22.713Z,101815.59
2022-07-29T05:06:49.841Z,101813.53
2022-07-29T05:09:16.581Z,101805.28
2022-07-29T05:11:43.520Z,101806.97
2022-07-29T05:14:10.257Z,101808.69
2022-07-29T05:16:37.044Z,101811.06
2022-07-29T05:19:04.030Z,101818.94
2022-07-29T05:21:30.690Z,101811.53
2022-07-29T05:23:57.697Z,101809.28
2022-07-29T05:26:24.466Z,101816.28
2022-07-29T05:28:51.216Z,101815.25
2022-07-29T05:31:18.105Z,101810.63
2022-07-29T05:33:44.946Z,101813.00
2022-07-29T05:36:11.681Z,101813.00
2022-07-29T05:38:38.670Z,101818.28
2022-07-29T05:41:06.365Z,101818.09
2022-07-29T05:43:33.592Z,101817.72
2022-07-29T05:46:00.622Z,101810.16
2022-07-29T05:48:27.895Z,101814.44
2022-07-29T05:50:55.693Z,101813.56
2022-07-29T05:53:23.023Z,101821.81
2022-07-29T05:55:50.421Z,101827.50
2022-07-29T05:58:17.381Z,101826.25
2022-07-29T06:00:44.407Z,101823.53
2022-07-29T06:03:11.318Z,101824.16
2022-07-29T06:05:38.032Z,101821.22
2022-07-29T06:08:08.397Z,101821.06
2022-07-29T06:10:38.794Z,101819.81
2022-07-29T06:13:05.713Z,101818.78
2022-07-29T06:15:32.758Z,101820.50
2022-07-29T06:18:01.217Z,101819.66
2022-07-29T06:20:33.004Z,101824.06
2022-07-29T06:23:00.761Z,101823.03
2022-07-29T06:29:11.977Z,101824.38
2022-07-29T06:31:39.644Z,101820.22
2022-07-29T06:34:06.882Z,101826.53
2022-07-29T06:37:33.568Z,101829.09
2022-07-29T06:41:01.115Z,101833.84
2022-07-29T06:43:30.265Z,101835.63
2022-07-29T06:45:57.443Z,101846.63
2022-07-29T06:48:24.201Z,101840.31
2022-07-29T06:50:51.402Z,101842.84
2022-07-29T06:53:18.136Z,101842.28
2022-07-29T06:55:45.052Z,101842.97
2022-07-29T06:58:12.298Z,101839.19
2022-07-29T07:00:39.081Z,101843.44
2022-07-29T07:03:05.800Z,101845.63
2022-07-29T07:05:32.865Z,101844.84
2022-07-29T07:07:59.576Z,101839.66
2022-07-29T07:10:26.335Z,101833.09
2022-07-29T07:12:53.377Z,101844.34
2022-07-29T07:15:22.934Z,101840.19
2022-07-29T07:18:07.263Z,101842.38
2022-07-29T07:20:35.081Z,101850.88
2022-07-29T07:23:01.998Z,101847.78
2022-07-29T07:25:29.424Z,101850.97
2022-07-29T07:27:56.119Z,101852.47
2022-07-29T07:31:22.753Z,101850.84
2022-07-29T07:34:49.246Z,101853.28
2022-07-29T07:38:16.075Z,101856.41
2022-07-29T07:41:42.532Z,101859.28
2022-07-29T07:44:14.165Z,101848.53
2022-07-29T07:46:42.615Z,101856.38
2022-07-29T07:50:10.319Z,101859.25
2022-07-29T07:57:31.361Z,101866.56
2022-07-29T07:59:58.059Z,101874.09
2022-07-29T08:02:24.933Z,101862.94
2022-07-29T08:09:51.394Z,101870.06
2022-07-29T08:12:19.569Z,101875.63
2022-07-29T08:14:46.348Z,101870.13
2022-07-29T08:17:13.178Z,101865.25
2022-07-29T08:19:39.912Z,101866.34
2022-07-29T08:22:06.668Z,101861.94
2022-07-29T08:24:47.442Z,101857.50
2022-07-29T08:28:13.932Z,101855.63
2022-07-29T08:35:35.612Z,101848.22
2022-07-29T08:39:03.012Z,101841.63
2022-07-29T08:42:05.959Z,101838.69
2022-07-29T08:44:32.929Z,101840.66
2022-07-29T08:47:59.486Z,101833.22
2022-07-29T08:55:10.627Z,101834.81
2022-07-29T08:58:38.457Z,101827.22
2022-07-29T09:05:01.681Z,101827.66
2022-07-29T09:07:34.495Z,101824.66
2022-07-29T09:10:02.429Z,101818.50
2022-07-29T09:12:33.679Z,101824.88
2022-07-29T09:15:38.932Z,101825.09
2022-07-29T09:18:05.670Z,101828.75
2022-07-29T09:20:51.210Z,101822.63
2022-07-29T09:23:23.420Z,101823.91
2022-07-29T09:25:51.560Z,101825.16
2022-07-29T09:28:19.146Z,101817.97
2022-07-29T09:30:54.213Z,101823.50
2022-07-29T09:33:23.052Z,101830.50
2022-07-29T09:36:10.118Z,101832.66
2022-07-29T09:38:38.447Z,101836.50
2022-07-29T09:41:06.837Z,101826.56
2022-07-29T09:43:35.348Z,101825.47
2022-07-29T09:47:14.238Z,101833.78
2022-07-29T09:49:59.459Z,101836.50
2022-07-29T09:52:30.698Z,101832.00
2022-07-29T09:59:13.522Z,101826.06
2022-07-29T10:01:40.348Z,101821.63
2022-07-29T10:04:07.101Z,101822.31
2022-07-29T10:06:34.180Z,101826.38
2022-07-29T10:09:13.273Z,101814.75
2022-07-29T10:11:49.360Z,101816.69
2022-07-29T10:14:23.610Z,101812.00
2022-07-29T10:16:50.707Z,101810.31
2022-07-29T10:19:18.391Z,101811.78
2022-07-29T10:21:45.929Z,101812.22
2022-07-29T10:24:15.293Z,101829.28
2022-07-29T10:26:43.195Z,101818.19
2022-07-29T10:29:10.640Z,101825.88
2022-07-29T10:32:02.123Z,101820.97
2022-07-29T10:34:57.941Z,101820.34
2022-07-29T10:38:06.625Z,101812.88
2022-07-29T10:41:19.409Z,101814.16
2022-07-29T10:43:51.413Z,101817.09
2022-07-29T10:46:19.560Z,101818.81
2022-07-29T10:49:24.385Z,101820.53
2022-07-29T10:51:51.945Z,101823.31
2022-07-29T10:54:19.666Z,101819.72
2022-07-29T10:56:47.159Z,101822.28
2022-07-29T10:59:21.393Z,101823.59
2022-07-29T11:02:02.453Z,101826.34
2022-07-29T11:04:47.117Z,101814.22
2022-07-29T11:07:17.650Z,101822.09
2022-07-29T11:09:46.601Z,101813.81
2022-07-29T11:12:38.800Z,101812.31
2022-07-29T11:15:07.969Z,101818.06
2022-07-29T11:17:54.201Z,101817.63
2022-07-29T11:20:39.424Z,101816.56
2022-07-29T11:23:33.844Z,101814.66
2022-07-29T11:26:26.218Z,101816.38
2022-07-29T11:29:25.660Z,101822.53
2022-07-29T11:31:58.263Z,101820.16
2022-07-29T11:34:31.150Z,101818.47
2022-07-29T11:37:12.353Z,101821.00
2022-07-29T11:39:47.615Z,101826.09
2022-07-29T11:42:28.242Z,101817.81
2022-07-29T11:45:06.647Z,101809.06
2022-07-29T11:47:50.595Z,101803.97
2022-07-29T11:50:27.724Z,101794.78
2022-07-29T11:52:54.912Z,101799.50
2022-07-29T11:55:32.534Z,101804.34
2022-07-29T11:58:03.842Z,101801.38
2022-07-29T12:00:38.646Z,101790.56
2022-07-29T12:03:08.066Z,101784.00
2022-07-29T12:06:34.605Z,101792.53
2022-07-29T12:10:01.260Z,101786.78
2022-07-29T12:13:37.126Z,101783.63
2022-07-29T12:17:04.547Z,101793.81
2022-07-29T12:19:43.478Z,101797.63
2022-07-29T12:23:12.008Z,101798.50
2022-07-29T12:26:36.338Z,101799.75
2022-07-29T12:29:04.508Z,101796.13
2022-07-29T12:32:38.041Z,101793.78
2022-07-29T12:36:10.381Z,101795.66
2022-07-29T12:38:47.828Z,101791.53
2022-07-29T12:41:15.207Z,101793.91
2022-07-29T12:43:54.571Z,101784.41
2022-07-29T12:46:21.680Z,101784.19
2022-07-29T12:49:52.922Z,101782.91
2022-07-29T12:53:31.498Z,101779.47
2022-07-29T13:00:20.918Z,101772.81
2022-07-29T13:03:57.755Z,101773.25
2022-07-29T13:06:52.241Z,101768.19
2022-07-29T13:14:10.527Z,101774.38
2022-07-29T13:16:58.313Z,101774.41
2022-07-29T13:20:27.663Z,101770.66
2022-07-29T13:23:54.136Z,101771.16
2022-07-29T13:27:21.465Z,101765.09
2022-07-29T13:34:31.057Z,101764.16
2022-07-29T13:36:57.827Z,101764.16
2022-07-29T13:39:24.505Z,101768.78
2022-07-29T13:42:51.278Z,101753.34
2022-07-29T13:46:17.831Z,101759.19
2022-07-29T13:49:44.531Z,101751.59
2022-07-29T13:56:53.918Z,101743.41
2022-07-29T14:00:20.394Z,101743.75
2022-07-29T14:07:39.745Z,101733.00
2022-07-29T14:11:06.264Z,101737.81
2022-07-29T14:14:32.846Z,101730.78
2022-07-29T14:17:59.371Z,101730.91
2022-07-29T14:25:18.380Z,101728.81
2022-07-29T14:28:47.746Z,101731.19
2022-07-29T14:32:14.649Z,101730.59
2022-07-29T14:35:41.667Z,101729.72
2022-07-29T14:43:02.487Z,101730.16
2022-07-29T14:46:29.032Z,101728.25
2022-07-29T14:49:55.707Z,101727.34
2022-07-29T14:53:22.351Z,101717.34
2022-07-29T14:56:49.032Z,101721.03
2022-07-29T15:00:15.669Z,101718.94
2022-07-29T15:03:42.299Z,101724.31
2022-07-29T15:07:08.917Z,101728.16
2022-07-29T15:10:35.675Z,101717.63
2022-07-29T15:17:45.195Z,101727.91
2022-07-29T15:21:12.281Z,101717.16
2022-07-29T15:24:38.843Z,101715.94
2022-07-29T15:28:05.341Z,101704.44
2022-07-29T16:07:12.601Z,101669.28
2022-07-29T16:10:40.880Z,101681.84
2022-07-29T16:14:07.489Z,101664.53
2022-07-29T16:17:35.719Z,101662.81
2022-07-29T16:21:02.488Z,101664.72
2022-07-29T16:28:12.076Z,101676.50
2022-07-29T16:31:38.573Z,101667.63
2022-07-29T16:35:05.347Z,101660.84
2022-07-29T16:38:31.924Z,101653.44
2022-07-29T16:45:52.244Z,101663.97
2022-07-29T16:49:19.532Z,101662.75
2022-07-29T16:56:27.986Z,101657.78
2022-07-29T16:59:54.457Z,101654.66
2022-07-29T17:03:21.082Z,101654.31
2022-07-29T17:06:47.582Z,101653.97
2022-07-29T17:14:07.846Z,101644.66
2022-07-29T17:17:38.932Z,101644.25
2022-07-29T17:24:03.273Z,101642.63
2022-07-29T17:26:31.044Z,101637.31
2022-07-29T17:28:57.734Z,101639.19
2022-07-29T17:32:24.304Z,101638.22
2022-07-29T17:34:51.169Z,101634.09
2022-07-29T17:37:18.006Z,101636.94
2022-07-29T17:39:45.069Z,101649.56
2022-07-29T17:42:14.374Z,101639.00
2022-07-29T17:45:49.589Z,101642.50
2022-07-29T17:52:59.097Z,101630.06
2022-07-29T17:56:25.609Z,101626.56
2022-07-29T18:02:44.691Z,101627.88
2022-07-29T18:05:11.437Z,101621.28
2022-07-29T18:07:58.204Z,101622.34
2022-07-29T18:11:24.713Z,101629.63
2022-07-29T18:13:51.723Z,101621.56
2022-07-29T18:21:02.272Z,101627.94
2022-07-29T18:24:28.844Z,101622.63
2022-07-29T18:26:56.647Z,101623.09
2022-07-29T18:29:23.776Z,101629.75
2022-07-29T18:31:50.778Z,101630.88
2022-07-29T18:34:17.808Z,101632.84
2022-07-29T18:36:45.985Z,101624.38
2022-07-29T18:39:13.209Z,101618.88
2022-07-29T18:41:50.163Z,101614.66
2022-07-29T18:51:54.109Z,101614.72
2022-07-29T18:54:20.958Z,101609.22
2022-07-29T19:01:40.212Z,101625.06
2022-07-29T19:04:07.115Z,101630.63
2022-07-29T19:06:34.055Z,101629.38
2022-07-29T19:10:00.815Z,101626.47
2022-07-29T19:13:27.333Z,101632.81
2022-07-29T19:16:54.098Z,101631.56
2022-07-29T19:23:04.079Z,101635.84
2022-07-29T19:25:31.123Z,101636.91
2022-07-29T19:28:02.402Z,101633.75
2022-07-29T19:30:29.314Z,101640.56
2022-07-29T19:33:55.827Z,101635.47
2022-07-29T19:36:23.231Z,101642.75
2022-07-29T19:38:50.144Z,101635.72
2022-07-29T19:42:16.933Z,101645.53
2022-07-29T19:44:47.655Z,101635.97
2022-07-29T19:51:05.763Z,101647.91
2022-07-29T19:53:33.237Z,101643.66
2022-07-29T19:57:00.027Z,101654.53
2022-07-29T20:00:27.234Z,101650.50
2022-07-29T20:02:54.165Z,101648.41
2022-07-29T20:05:29.006Z,101652.66
2022-07-29T20:07:56.006Z,101653.94
2022-07-29T20:10:22.853Z,101664.16
2022-07-29T20:12:49.764Z,101648.84
2022-07-29T20:15:20.541Z,101648.41
2022-07-29T20:17:47.329Z,101637.16
2022-07-29T20:20:14.144Z,101635.91
2022-07-29T20:22:43.316Z,101636.31
2022-07-29T20:25:11.930Z,101644.00
2022-07-29T20:27:40.734Z,101649.53
2022-07-29T20:30:08.524Z,101642.47
2022-07-29T20:32:35.631Z,101657.34
2022-07-29T20:35:02.410Z,101656.50
2022-07-29T20:37:29.362Z,101655.66
2022-07-29T20:39:56.110Z,101666.06
2022-07-29T20:42:22.986Z,101658.63
2022-07-29T20:44:52.375Z,101669.66
2022-07-29T20:47:20.988Z,101657.78
2022-07-29T20:49:47.817Z,101655.22
2022-07-29T20:52:14.663Z,101643.34
2022-07-29T20:54:41.440Z,101642.47
2022-07-29T20:58:08.400Z,101647.16
2022-07-29T21:01:35.007Z,101649.72
2022-07-29T21:08:54.326Z,101636.72
2022-07-29T21:12:21.032Z,101637.59
2022-07-29T21:19:30.471Z,101626.78
2022-07-29T21:22:56.950Z,101625.91
2022-07-29T21:26:23.602Z,101627.63
2022-07-29T21:29:50.067Z,101624.63
2022-07-29T21:33:16.810Z,101630.16
2022-07-29T21:36:48.138Z,101622.53
2022-07-29T21:40:15.288Z,101616.13
2022-07-29T21:43:42.073Z,101615.72
2022-07-29T21:47:08.779Z,101619.75
2022-07-29T21:49:35.620Z,101619.13
2022-07-29T21:52:04.781Z,101624.03
2022-07-29T21:54:31.725Z,101622.53
2022-07-29T21:56:58.836Z,101617.22
2022-07-29T21:59:27.666Z,101619.38
2022-07-29T22:01:54.885Z,101609.59
2022-07-29T22:04:21.830Z,101608.94
2022-07-29T22:06:49.245Z,101600.03
2022-07-29T22:09:16.205Z,101598.75
2022-07-29T22:11:43.900Z,101603.41
2022-07-29T22:14:12.367Z,101606.41
2022-07-29T22:16:39.387Z,101601.97
2022-07-29T22:19:06.196Z,101602.16
2022-07-29T22:21:33.093Z,101601.75
2022-07-29T22:24:01.352Z,101601.09
2022-07-29T22:26:28.090Z,101606.81
2022-07-29T22:28:54.885Z,101602.56
2022-07-29T22:31:21.955Z,101600.91
2022-07-29T22:33:52.208Z,101599.19
2022-07-29T22:36:19.369Z,101604.94
2022-07-29T22:38:50.251Z,101595.81
2022-07-29T22:41:18.614Z,101596.22
2022-07-29T22:43:45.509Z,101588.81
2022-07-29T22:46:12.637Z,101584.34
2022-07-29T22:48:39.531Z,101598.34
2022-07-29T22:51:07.285Z,101600.06
2022-07-29T22:53:34.287Z,101594.72
2022-07-29T22:56:00.967Z,101596.63
2022-07-29T22:58:28.935Z,101588.38
2022-07-29T23:00:55.921Z,101598.78
2022-07-29T23:03:23.082Z,101588.13
2022-07-29T23:05:51.657Z,101575.44
2022-07-29T23:08:19.835Z,101584.53
2022-07-29T23:10:46.815Z,101589.84
2022-07-29T23:13:14.218Z,101589.00
2022-07-29T23:15:41.583Z,101575.00
2022-07-29T23:18:08.388Z,101577.75
2022-07-29T23:20:35.836Z,101582.22
2022-07-29T23:23:02.849Z,101599.63
2022-07-29T23:25:29.658Z,101590.50
2022-07-29T23:27:56.694Z,101583.91
2022-07-29T23:30:24.026Z,101579.25
2022-07-29T23:32:50.910Z,101583.91
2022-07-29T23:35:17.778Z,101594.09
2022-07-29T23:37:44.717Z,101601.53
2022-07-29T23:40:14.500Z,101590.69
2022-07-29T23:42:42.397Z,101590.91
2022-07-29T23:45:10.615Z,101577.53
2022-07-29T23:47:37.415Z,101579.88
2022-07-29T23:50:05.590Z,101590.28
2022-07-29T23:52:32.456Z,101590.28
2022-07-29T23:55:37.957Z,101588.56
2022-07-29T23:57:46.394Z,101585.41
